Time;durP1;ratioP1;P1;durP2;ratioP2;P2;SDS_P1;SDS_P2;PMS_P1;PMS_P2;Temp;Humidity;BMP_temperature;BMP_pressure;BME280_temperature;BME280_humidity;BME280_pressure;Samples;Min_cycle;Max_cycle;Signal;HPM_P1;HPM_P2
2023/10/31 00:01:28;;;;;;;3.17;1.30;;;12.00;99.90;;;;;;4912662;28;20196;-67
2023/10/31 00:03:53;;;;;;;4.83;0.80;;;12.10;99.90;;;;;;4912599;28;20215;-68
2023/10/31 00:06:19;;;;;;;2.10;0.70;;;12.10;99.90;;;;;;4912640;28;20274;-69
2023/10/31 00:08:44;;;;;;;4.73;0.80;;;12.10;99.90;;;;;;4912688;28;20200;-68
2023/10/31 00:11:10;;;;;;;4.00;0.80;;;12.00;99.90;;;;;;4912543;28;20199;-67
2023/10/31 00:13:35;;;;;;;1.10;0.70;;;11.90;99.90;;;;;;4912209;28;20188;-68
2023/10/31 00:16:01;;;;;;;1.47;0.83;;;11.90;99.90;;;;;;4912565;28;20615;-67
2023/10/31 00:18:27;;;;;;;5.23;0.83;;;11.90;99.90;;;;;;4912372;28;20199;-66
2023/10/31 00:20:52;;;;;;;2.43;0.70;;;11.90;99.90;;;;;;4912601;28;20226;-66
2023/10/31 00:23:18;;;;;;;1.30;0.80;;;11.90;99.90;;;;;;4912135;28;20206;-68
2023/10/31 00:25:43;;;;;;;0.70;0.60;;;11.90;99.90;;;;;;4912461;28;20192;-67
2023/10/31 00:28:09;;;;;;;1.20;0.60;;;11.90;99.90;;;;;;4912181;28;20188;-67
2023/10/31 00:30:34;;;;;;;0.90;0.67;;;11.90;99.90;;;;;;4912332;28;20203;-67
2023/10/31 00:33:00;;;;;;;1.00;0.60;;;11.80;99.90;;;;;;4912464;28;20200;-66
2023/10/31 00:35:25;;;;;;;1.40;0.60;;;11.90;99.90;;;;;;4910927;28;20203;-66
2023/10/31 00:37:51;;;;;;;0.97;0.70;;;11.90;99.90;;;;;;4912321;28;20287;-67
2023/10/31 00:40:17;;;;;;;0.70;0.50;;;11.80;99.90;;;;;;4911992;28;20262;-67
2023/10/31 00:42:43;;;;;;;3.97;0.80;;;11.70;99.90;;;;;;4945014;28;20661;-66
2023/10/31 00:45:09;;;;;;;0.73;0.57;;;11.70;99.90;;;;;;4911442;28;20192;-69
2023/10/31 00:47:35;;;;;;;2.37;0.77;;;11.60;99.90;;;;;;4912371;28;20326;-67
2023/10/31 00:50:01;;;;;;;3.97;0.80;;;11.60;99.90;;;;;;4911572;28;20227;-66
2023/10/31 00:52:26;;;;;;;2.83;0.70;;;11.50;99.90;;;;;;4911987;28;20574;-66
2023/10/31 00:54:52;;;;;;;4.03;0.57;;;11.40;99.90;;;;;;4911750;28;20330;-67
2023/10/31 00:57:17;;;;;;;1.20;0.77;;;11.40;99.90;;;;;;4911855;28;20195;-68
2023/10/31 00:59:43;;;;;;;1.80;0.70;;;11.30;99.90;;;;;;4911791;28;20955;-67
2023/10/31 01:02:08;;;;;;;0.87;0.60;;;11.20;99.90;;;;;;4911915;28;20566;-67
2023/10/31 01:04:36;;;;;;;4.37;0.80;;;11.10;99.90;;;;;;4911723;28;20275;-68
2023/10/31 01:07:01;;;;;;;2.27;1.10;;;11.00;99.90;;;;;;4911826;28;20250;-66
2023/10/31 01:09:27;;;;;;;3.17;1.30;;;11.00;99.90;;;;;;4903754;28;20228;-67
2023/10/31 01:11:53;;;;;;;3.70;0.77;;;11.00;99.90;;;;;;4911829;28;20271;-68
2023/10/31 01:14:19;;;;;;;2.73;1.37;;;11.00;99.90;;;;;;4911510;28;20264;-67
2023/10/31 01:16:45;;;;;;;0.90;0.60;;;10.90;99.90;;;;;;4911752;28;20219;-68
2023/10/31 01:19:10;;;;;;;0.70;0.70;;;11.00;99.90;;;;;;4903595;28;20298;-67
2023/10/31 01:21:36;;;;;;;4.43;0.77;;;11.00;99.90;;;;;;4908246;28;20190;-66
2023/10/31 01:24:01;;;;;;;1.83;0.90;;;11.00;99.90;;;;;;4907089;28;20700;-66
2023/10/31 01:26:27;;;;;;;0.90;0.70;;;11.00;99.90;;;;;;4911389;28;20188;-66
2023/10/31 01:28:52;;;;;;;0.70;0.50;;;11.00;99.90;;;;;;4911475;28;20287;-68
2023/10/31 01:31:18;;;;;;;0.50;0.50;;;11.00;99.90;;;;;;4911386;28;20664;-67
2023/10/31 01:33:43;;;;;;;2.40;0.60;;;11.00;99.90;;;;;;4911263;28;20262;-67
2023/10/31 01:36:11;;;;;;;1.53;0.60;;;11.00;99.90;;;;;;4911436;28;20278;-69
2023/10/31 01:38:36;;;;;;;0.50;0.50;;;11.10;99.90;;;;;;4911443;28;20731;-66
2023/10/31 01:41:02;;;;;;;1.77;0.40;;;11.00;99.90;;;;;;4904515;28;20240;-67
2023/10/31 01:43:38;;;;;;;4.70;0.50;;;11.00;99.90;;;;;;4910076;28;20215;-67
2023/10/31 01:46:04;;;;;;;0.60;0.40;;;11.00;99.90;;;;;;4911492;28;20569;-67
2023/10/31 01:48:31;;;;;;;0.67;0.50;;;11.00;99.90;;;;;;4903286;28;20273;-67
2023/10/31 01:50:59;;;;;;;0.63;0.60;;;11.00;99.90;;;;;;4911343;28;20217;-68
2023/10/31 01:53:25;;;;;;;0.90;0.50;;;11.00;99.90;;;;;;4910823;28;20246;-68
2023/10/31 01:55:53;;;;;;;0.73;0.50;;;11.00;99.90;;;;;;4911137;28;20575;-67
2023/10/31 01:58:21;;;;;;;0.50;0.40;;;11.00;99.90;;;;;;4912454;28;20701;-67
2023/10/31 02:00:46;;;;;;;1.80;0.50;;;10.90;99.90;;;;;;4914449;28;20234;-67
2023/10/31 02:03:13;;;;;;;0.87;0.70;;;10.90;99.90;;;;;;4914378;28;20673;-66
2023/10/31 02:05:39;;;;;;;0.80;0.50;;;10.90;99.90;;;;;;4914481;28;20246;-67
2023/10/31 02:08:08;;;;;;;1.00;0.50;;;10.90;99.90;;;;;;4906703;28;20720;-67
2023/10/31 02:10:34;;;;;;;0.67;0.50;;;10.90;99.90;;;;;;4947503;28;20180;-67
2023/10/31 02:13:13;;;;;;;1.27;0.70;;;10.90;99.90;;;;;;4914472;28;20730;-67
2023/10/31 02:15:39;;;;;;;2.57;0.70;;;10.90;99.90;;;;;;4914330;28;20531;-66
2023/10/31 02:18:05;;;;;;;1.90;0.70;;;10.90;99.90;;;;;;4914556;28;20266;-66
2023/10/31 02:20:31;;;;;;;1.73;0.60;;;11.00;99.90;;;;;;4914207;28;20278;-66
2023/10/31 02:22:56;;;;;;;0.67;0.50;;;11.00;99.90;;;;;;4914278;28;20196;-68
2023/10/31 02:25:22;;;;;;;3.50;0.60;;;11.00;99.90;;;;;;4912866;28;20622;-68
2023/10/31 02:27:47;;;;;;;3.10;0.90;;;11.00;99.90;;;;;;4914241;28;20187;-67
2023/10/31 02:30:14;;;;;;;6.00;1.50;;;11.00;99.90;;;;;;4913987;28;20214;-67
2023/10/31 02:32:40;;;;;;;1.83;0.70;;;10.90;99.90;;;;;;4914222;28;20188;-67
2023/10/31 02:35:06;;;;;;;7.50;0.67;;;10.90;99.90;;;;;;4913811;28;20740;-67
2023/10/31 02:37:32;;;;;;;0.70;0.43;;;10.90;99.90;;;;;;4913938;28;20196;-68
2023/10/31 02:39:58;;;;;;;0.60;0.50;;;10.80;99.90;;;;;;4906129;28;20227;-67
2023/10/31 02:42:24;;;;;;;1.53;0.60;;;10.80;99.90;;;;;;4913986;28;20287;-67
2023/10/31 02:44:49;;;;;;;0.53;0.47;;;10.80;99.90;;;;;;4913652;28;20729;-67
2023/10/31 02:47:15;;;;;;;1.13;0.50;;;10.80;99.90;;;;;;4913915;28;20270;-66
2023/10/31 02:49:40;;;;;;;3.13;0.80;;;10.80;99.90;;;;;;4913638;28;20689;-66
2023/10/31 02:52:06;;;;;;;2.93;0.70;;;10.80;99.90;;;;;;4913726;28;20188;-66
2023/10/31 02:54:32;;;;;;;1.10;0.70;;;10.80;99.90;;;;;;4913388;28;20320;-69
2023/10/31 02:56:58;;;;;;;0.80;0.60;;;10.80;99.90;;;;;;4913680;28;20192;-68
2023/10/31 02:59:23;;;;;;;3.60;0.80;;;10.70;99.90;;;;;;4913633;28;20257;-66
2023/10/31 03:01:49;;;;;;;1.33;0.57;;;10.60;99.90;;;;;;4913968;28;20188;-65
2023/10/31 03:04:15;;;;;;;5.60;1.03;;;10.50;99.90;;;;;;4913473;28;20188;-66
2023/10/31 03:06:40;;;;;;;1.70;0.83;;;10.50;99.90;;;;;;4913741;28;20564;-67
2023/10/31 03:09:06;;;;;;;1.47;0.70;;;10.50;99.90;;;;;;4913502;28;20220;-66
2023/10/31 03:11:32;;;;;;;1.90;0.70;;;10.50;99.90;;;;;;4913682;28;20207;-67
2023/10/31 03:13:58;;;;;;;2.47;0.90;;;10.60;99.90;;;;;;4913420;28;20184;-67
2023/10/31 03:16:24;;;;;;;4.03;0.80;;;10.50;99.90;;;;;;4913578;28;20547;-67
2023/10/31 03:18:50;;;;;;;1.80;0.87;;;10.40;99.90;;;;;;4913472;28;20215;-66
2023/10/31 03:21:16;;;;;;;11.80;1.63;;;10.30;99.90;;;;;;4913289;28;20220;-66
2023/10/31 03:23:43;;;;;;;6.03;0.90;;;10.20;99.90;;;;;;4913214;28;20188;-66
2023/10/31 03:26:08;;;;;;;1.83;1.07;;;10.10;99.90;;;;;;4913296;28;20661;-66
2023/10/31 03:28:34;;;;;;;7.23;0.80;;;9.90;99.90;;;;;;4913023;28;20222;-67
2023/10/31 03:30:59;;;;;;;3.57;0.80;;;9.70;99.90;;;;;;4913265;28;20195;-67
2023/10/31 03:33:25;;;;;;;7.37;0.73;;;9.60;99.90;;;;;;4912760;28;20195;-68
2023/10/31 03:35:50;;;;;;;4.57;1.20;;;9.50;99.90;;;;;;4905433;28;20611;-67
2023/10/31 03:38:16;;;;;;;1.87;0.90;;;9.30;99.90;;;;;;4913150;28;20199;-66
2023/10/31 03:40:42;;;;;;;7.23;0.87;;;9.20;99.90;;;;;;4913027;28;20218;-66
2023/10/31 03:43:07;;;;;;;6.20;0.80;;;9.10;99.90;;;;;;4905176;28;20194;-67
2023/10/31 03:45:33;;;;;;;5.47;0.93;;;9.10;99.90;;;;;;4912738;28;20216;-69
2023/10/31 03:47:58;;;;;;;4.93;0.90;;;9.00;99.90;;;;;;4912936;28;20176;-67
2023/10/31 03:50:24;;;;;;;3.53;0.70;;;9.00;99.90;;;;;;4912696;28;20258;-67
2023/10/31 03:52:49;;;;;;;6.63;1.10;;;8.90;99.90;;;;;;4913120;28;20242;-66
2023/10/31 03:55:15;;;;;;;11.73;1.23;;;8.90;99.90;;;;;;4912541;28;20196;-67
2023/10/31 03:57:41;;;;;;;4.43;0.83;;;8.80;99.90;;;;;;4912842;28;20275;-65
2023/10/31 04:00:07;;;;;;;13.10;1.20;;;8.80;99.90;;;;;;4911497;28;20231;-66
2023/10/31 04:02:33;;;;;;;9.50;1.07;;;8.70;99.90;;;;;;4912731;28;20192;-66
2023/10/31 04:04:58;;;;;;;4.13;0.87;;;8.60;99.90;;;;;;4912521;28;20191;-67
2023/10/31 04:07:24;;;;;;;9.20;1.40;;;8.60;99.90;;;;;;4912740;28;20188;-67
2023/10/31 04:09:49;;;;;;;2.97;0.77;;;8.70;99.90;;;;;;4912573;28;20208;-67
2023/10/31 04:12:16;;;;;;;2.80;1.10;;;8.70;99.90;;;;;;4912597;28;20271;-66
2023/10/31 04:14:42;;;;;;;6.73;1.10;;;8.70;99.90;;;;;;4912450;28;20195;-67
2023/10/31 04:17:08;;;;;;;2.97;1.43;;;8.70;99.90;;;;;;4912659;28;20184;-66
2023/10/31 04:19:33;;;;;;;4.83;1.30;;;8.80;99.90;;;;;;4912359;28;20708;-67
2023/10/31 04:21:59;;;;;;;3.93;1.60;;;8.80;99.90;;;;;;4911917;28;20188;-67
2023/10/31 04:24:24;;;;;;;4.27;1.30;;;8.90;99.90;;;;;;4912014;28;20192;-67
2023/10/31 04:26:50;;;;;;;3.77;1.27;;;8.90;99.90;;;;;;4912482;28;20192;-67
2023/10/31 04:29:15;;;;;;;2.87;1.30;;;9.00;99.90;;;;;;4910958;28;20755;-66
2023/10/31 04:31:41;;;;;;;3.77;1.10;;;9.10;99.90;;;;;;4912280;28;20600;-66
2023/10/31 04:34:07;;;;;;;3.83;1.00;;;9.10;99.90;;;;;;4912011;28;20271;-66
2023/10/31 04:36:32;;;;;;;2.30;1.13;;;9.20;99.90;;;;;;4912217;28;20226;-67
2023/10/31 04:38:58;;;;;;;9.53;1.47;;;9.30;99.90;;;;;;4912293;28;20234;-67
2023/10/31 04:41:23;;;;;;;6.37;1.50;;;9.40;99.90;;;;;;4912012;28;20215;-69
2023/10/31 04:43:49;;;;;;;10.50;1.30;;;9.40;99.90;;;;;;4911806;28;20687;-66
2023/10/31 04:46:14;;;;;;;2.47;0.90;;;9.40;99.90;;;;;;4911975;28;20238;-67
2023/10/31 04:48:40;;;;;;;2.70;1.00;;;9.40;99.90;;;;;;4911883;28;20224;-67
2023/10/31 04:51:05;;;;;;;1.87;0.90;;;9.40;99.90;;;;;;4911969;28;20199;-66
2023/10/31 04:53:33;;;;;;;4.00;1.03;;;9.50;99.90;;;;;;4911598;28;20191;-66
2023/10/31 04:55:59;;;;;;;7.50;1.00;;;9.50;99.90;;;;;;4910754;28;20594;-67
2023/10/31 04:58:24;;;;;;;2.90;0.87;;;9.50;99.90;;;;;;4911656;28;20226;-66
2023/10/31 05:00:50;;;;;;;2.47;0.70;;;9.50;99.90;;;;;;4911968;28;20585;-68
2023/10/31 05:03:16;;;;;;;4.30;0.80;;;9.50;99.90;;;;;;4911303;28;20195;-67
2023/10/31 05:05:41;;;;;;;6.27;0.73;;;9.50;99.90;;;;;;4911922;28;20199;-66
2023/10/31 05:08:07;;;;;;;1.37;0.90;;;9.50;99.90;;;;;;4912141;28;20233;-66
2023/10/31 05:10:33;;;;;;;2.90;0.60;;;9.40;99.90;;;;;;4911593;28;20295;-67
2023/10/31 05:13:00;;;;;;;1.23;0.60;;;9.40;99.90;;;;;;4911672;28;20673;-68
2023/10/31 05:15:25;;;;;;;4.43;0.63;;;9.50;99.90;;;;;;4911490;28;20183;-66
2023/10/31 05:17:51;;;;;;;0.80;0.50;;;9.50;99.90;;;;;;4911526;28;20198;-67
2023/10/31 05:20:16;;;;;;;1.90;0.67;;;9.50;99.90;;;;;;4911738;28;20265;-67
2023/10/31 05:22:42;;;;;;;0.97;0.60;;;9.50;99.90;;;;;;4911549;28;20271;-65
2023/10/31 05:25:08;;;;;;;0.87;0.63;;;9.60;99.90;;;;;;4911288;28;20192;-67
2023/10/31 05:27:33;;;;;;;0.80;0.60;;;9.60;99.90;;;;;;4911476;28;20246;-68
2023/10/31 05:29:59;;;;;;;2.03;0.70;;;9.60;99.90;;;;;;4911483;28;20219;-66
2023/10/31 05:32:24;;;;;;;2.80;0.53;;;9.60;99.90;;;;;;4911240;28;20203;-67
2023/10/31 05:34:50;;;;;;;1.17;0.70;;;9.60;99.90;;;;;;4911428;28;20187;-67
2023/10/31 05:37:15;;;;;;;1.40;0.80;;;9.70;99.90;;;;;;4911544;28;20188;-66
2023/10/31 05:39:41;;;;;;;0.70;0.50;;;9.70;99.90;;;;;;4911219;28;20246;-67
2023/10/31 05:42:06;;;;;;;0.60;0.60;;;9.70;99.90;;;;;;4911426;28;20183;-66
2023/10/31 05:44:32;;;;;;;0.90;0.77;;;9.70;99.90;;;;;;4910984;28;20691;-66
2023/10/31 05:46:58;;;;;;;1.53;0.67;;;9.70;99.90;;;;;;4911293;28;20180;-66
2023/10/31 05:49:23;;;;;;;2.97;0.60;;;9.70;99.90;;;;;;4910963;28;20231;-67
2023/10/31 05:51:52;;;;;;;0.60;0.53;;;9.70;99.90;;;;;;4911402;28;20247;-66
2023/10/31 05:54:18;;;;;;;4.53;0.90;;;9.70;99.90;;;;;;4910732;28;20180;-67
2023/10/31 05:56:44;;;;;;;1.33;0.67;;;9.70;99.90;;;;;;4911024;28;20184;-66
2023/10/31 05:59:11;;;;;;;1.93;0.70;;;9.70;99.90;;;;;;4903716;28;20207;-67
2023/10/31 06:01:36;;;;;;;1.43;0.70;;;9.70;99.90;;;;;;4910875;28;20196;-67
2023/10/31 06:04:02;;;;;;;1.20;0.67;;;9.80;99.90;;;;;;4910825;28;20286;-66
2023/10/31 06:06:29;;;;;;;1.63;0.73;;;9.70;99.90;;;;;;4910908;28;20187;-67
2023/10/31 06:08:54;;;;;;;1.93;0.60;;;9.70;99.90;;;;;;4910981;28;20216;-67
2023/10/31 06:11:20;;;;;;;0.60;0.53;;;9.70;99.90;;;;;;4910900;28;20203;-67
2023/10/31 06:13:47;;;;;;;1.70;0.70;;;9.70;99.90;;;;;;4910770;28;20199;-68
2023/10/31 06:16:13;;;;;;;2.03;0.50;;;9.70;99.90;;;;;;4910949;28;20207;-67
2023/10/31 06:18:40;;;;;;;1.03;0.60;;;9.70;99.90;;;;;;4910923;28;20640;-67
2023/10/31 06:21:05;;;;;;;0.57;0.50;;;9.70;99.90;;;;;;4911053;28;20216;-66
2023/10/31 06:23:31;;;;;;;0.90;0.50;;;9.70;99.90;;;;;;4910489;28;20202;-67
2023/10/31 06:25:57;;;;;;;1.17;0.63;;;9.70;99.90;;;;;;4910899;28;20250;-66
2023/10/31 06:28:23;;;;;;;4.37;0.60;;;9.70;99.90;;;;;;4909275;28;20200;-68
2023/10/31 06:30:49;;;;;;;2.63;0.90;;;9.70;99.90;;;;;;4910722;28;20180;-67
2023/10/31 06:33:14;;;;;;;1.77;0.70;;;9.70;99.90;;;;;;4910386;28;20199;-69
2023/10/31 06:35:40;;;;;;;3.43;1.53;;;9.80;99.90;;;;;;4910754;28;20222;-67
2023/10/31 06:38:06;;;;;;;2.13;0.90;;;9.80;99.90;;;;;;4910845;28;20184;-67
2023/10/31 06:40:31;;;;;;;3.03;0.90;;;9.80;99.90;;;;;;4910296;28;20224;-66
2023/10/31 06:42:57;;;;;;;2.93;1.10;;;9.70;99.90;;;;;;4902834;28;20613;-69
2023/10/31 06:45:22;;;;;;;3.83;0.80;;;9.80;99.90;;;;;;4917989;28;20626;-68
2023/10/31 06:47:48;;;;;;;0.73;0.60;;;9.80;99.90;;;;;;4936264;28;20208;-66
2023/10/31 06:50:13;;;;;;;1.47;0.70;;;9.80;99.90;;;;;;4909915;28;20676;-68
2023/10/31 06:52:39;;;;;;;2.37;0.90;;;9.90;99.90;;;;;;4913220;28;20196;-66
2023/10/31 06:55:05;;;;;;;1.50;1.00;;;9.90;99.90;;;;;;4912879;28;20199;-68
2023/10/31 06:57:30;;;;;;;4.50;0.73;;;9.90;99.90;;;;;;4912979;28;20666;-67
2023/10/31 06:59:56;;;;;;;1.53;0.60;;;10.00;99.90;;;;;;4913021;28;20772;-67
2023/10/31 07:02:21;;;;;;;1.60;0.50;;;10.00;99.90;;;;;;4912974;28;20184;-67
2023/10/31 07:04:47;;;;;;;2.57;0.50;;;10.00;99.90;;;;;;4912972;28;20192;-67
2023/10/31 07:07:12;;;;;;;2.30;1.00;;;10.10;99.90;;;;;;4912931;28;20192;-67
2023/10/31 07:09:38;;;;;;;1.20;0.73;;;10.10;99.90;;;;;;4905188;28;20215;-66
2023/10/31 07:12:04;;;;;;;4.80;0.97;;;10.10;99.90;;;;;;4912880;28;20184;-66
2023/10/31 07:14:29;;;;;;;4.57;0.90;;;10.10;99.90;;;;;;4912490;28;20646;-66
2023/10/31 07:16:56;;;;;;;1.90;1.00;;;10.10;99.90;;;;;;4913012;28;20191;-68
2023/10/31 07:19:22;;;;;;;1.57;0.90;;;10.00;99.90;;;;;;4912563;28;20279;-68
2023/10/31 07:21:47;;;;;;;6.07;1.10;;;10.00;99.90;;;;;;4912751;28;20206;-66
2023/10/31 07:24:13;;;;;;;1.30;0.90;;;10.10;99.90;;;;;;4912655;28;20195;-67
2023/10/31 07:26:39;;;;;;;3.43;1.10;;;10.00;99.90;;;;;;4912766;28;20181;-66
2023/10/31 07:29:05;;;;;;;1.43;0.87;;;10.00;99.90;;;;;;4912534;28;20207;-68
2023/10/31 07:31:30;;;;;;;1.17;0.80;;;10.00;99.90;;;;;;4912719;28;20194;-67
2023/10/31 07:33:56;;;;;;;1.50;0.70;;;10.00;99.90;;;;;;4912743;28;20192;-67
2023/10/31 07:36:22;;;;;;;1.30;0.80;;;10.00;99.90;;;;;;4912262;28;20274;-67
2023/10/31 07:38:47;;;;;;;1.20;0.90;;;10.00;99.90;;;;;;4912936;28;20212;-66
2023/10/31 07:41:13;;;;;;;1.63;1.20;;;10.00;99.90;;;;;;4912429;28;20261;-69
2023/10/31 07:43:38;;;;;;;4.63;0.90;;;10.00;99.90;;;;;;4911981;28;20258;-66
2023/10/31 07:46:04;;;;;;;1.97;1.17;;;10.10;99.90;;;;;;4918795;28;20676;-67
2023/10/31 07:48:31;;;;;;;1.73;1.10;;;10.10;99.90;;;;;;4939851;28;20763;-66
2023/10/31 07:50:57;;;;;;;4.07;1.10;;;10.10;99.90;;;;;;4961819;28;20477;-68
2023/10/31 07:53:22;;;;;;;4.03;1.43;;;10.10;99.90;;;;;;4930039;28;20195;-66
2023/10/31 07:55:49;;;;;;;1.50;1.10;;;10.20;99.90;;;;;;4949028;28;20287;-67
2023/10/31 07:58:15;;;;;;;2.10;1.10;;;10.30;99.90;;;;;;4970427;28;20210;-67
2023/10/31 08:00:40;;;;;;;1.83;1.00;;;10.30;99.90;;;;;;4928239;28;20212;-64
2023/10/31 08:03:06;;;;;;;2.40;1.70;;;10.40;99.90;;;;;;4912084;28;20218;-66
2023/10/31 08:05:32;;;;;;;3.40;2.07;;;10.50;99.90;;;;;;4911518;28;20188;-67
2023/10/31 08:07:58;;;;;;;2.07;1.20;;;10.60;99.90;;;;;;4912056;28;20270;-68
2023/10/31 08:10:23;;;;;;;2.00;1.10;;;10.60;99.90;;;;;;4911939;28;20295;-67
2023/10/31 08:12:49;;;;;;;2.83;1.53;;;10.60;99.90;;;;;;4911855;28;20274;-67
2023/10/31 08:15:16;;;;;;;1.87;1.00;;;10.60;99.90;;;;;;4911697;28;20184;-67
2023/10/31 08:17:42;;;;;;;2.00;1.00;;;10.60;99.90;;;;;;4911799;28;20184;-67
2023/10/31 08:20:09;;;;;;;4.37;0.90;;;10.60;99.90;;;;;;4911676;28;20264;-67
2023/10/31 08:22:35;;;;;;;1.03;0.80;;;10.60;99.90;;;;;;4911636;28;20192;-67
2023/10/31 08:25:01;;;;;;;1.57;0.97;;;10.60;99.90;;;;;;4911535;28;20188;-67
2023/10/31 08:27:26;;;;;;;2.83;0.90;;;10.60;99.90;;;;;;4911387;28;20235;-67
2023/10/31 08:29:52;;;;;;;2.70;1.20;;;10.60;99.90;;;;;;4912007;28;20588;-67
2023/10/31 08:32:17;;;;;;;3.50;0.90;;;10.70;99.90;;;;;;4911603;28;20646;-67
2023/10/31 08:34:43;;;;;;;1.77;0.97;;;10.80;99.90;;;;;;4911547;28;20666;-67
2023/10/31 08:37:09;;;;;;;2.63;1.40;;;10.80;99.90;;;;;;4911777;28;20346;-66
2023/10/31 08:39:34;;;;;;;2.40;1.30;;;10.90;99.90;;;;;;4911395;28;20710;-65
2023/10/31 08:42:00;;;;;;;3.17;1.60;;;11.00;99.90;;;;;;4911434;28;20180;-65
2023/10/31 08:44:27;;;;;;;1.67;1.10;;;11.00;99.90;;;;;;4911405;28;20172;-67
2023/10/31 08:46:52;;;;;;;3.77;1.83;;;11.20;99.90;;;;;;4911362;28;20203;-67
2023/10/31 08:49:18;;;;;;;3.23;1.40;;;11.70;99.90;;;;;;4911097;28;20220;-66
2023/10/31 08:51:44;;;;;;;2.87;1.33;;;12.10;99.90;;;;;;4911722;28;20180;-67
2023/10/31 08:54:10;;;;;;;2.53;0.90;;;12.50;99.90;;;;;;4911345;28;20662;-67
2023/10/31 08:56:36;;;;;;;3.20;1.50;;;12.70;99.90;;;;;;4911271;28;20226;-66
2023/10/31 08:59:01;;;;;;;2.77;1.13;;;12.90;99.90;;;;;;4911579;28;20319;-67
2023/10/31 09:01:28;;;;;;;2.17;1.07;;;13.20;99.90;;;;;;4911168;28;20286;-66
2023/10/31 09:03:55;;;;;;;2.90;1.00;;;13.50;99.90;;;;;;4911167;28;20262;-67
2023/10/31 09:06:20;;;;;;;3.87;1.10;;;13.80;99.90;;;;;;4910623;28;20234;-67
2023/10/31 09:08:46;;;;;;;1.50;0.90;;;14.30;99.90;;;;;;4911374;28;20212;-67
2023/10/31 09:11:11;;;;;;;2.20;0.70;;;14.30;99.90;;;;;;4911167;28;20737;-67
2023/10/31 09:13:37;;;;;;;2.80;1.20;;;14.20;99.90;;;;;;4910809;28;20203;-67
2023/10/31 09:16:03;;;;;;;1.07;0.70;;;13.80;99.90;;;;;;4911251;28;20262;-67
2023/10/31 09:18:28;;;;;;;3.73;1.07;;;13.80;99.90;;;;;;4902667;28;20201;-66
2023/10/31 09:20:54;;;;;;;2.30;0.90;;;13.70;99.90;;;;;;4911064;28;20216;-67
2023/10/31 09:23:19;;;;;;;1.47;0.90;;;13.40;99.90;;;;;;4910589;28;20192;-67
2023/10/31 09:25:45;;;;;;;1.70;0.80;;;13.20;99.90;;;;;;4910987;28;20219;-66
2023/10/31 09:28:11;;;;;;;1.63;1.10;;;13.10;99.90;;;;;;4911006;28;20235;-67
2023/10/31 09:30:37;;;;;;;2.50;0.90;;;13.00;99.90;;;;;;4910960;28;20458;-67
2023/10/31 09:33:02;;;;;;;1.70;1.10;;;12.90;99.90;;;;;;4910753;28;20192;-67
2023/10/31 09:35:28;;;;;;;3.03;1.00;;;13.00;99.90;;;;;;4908878;28;20203;-66
2023/10/31 09:37:54;;;;;;;1.50;0.80;;;12.90;99.90;;;;;;4904908;28;20600;-67
2023/10/31 09:40:21;;;;;;;2.57;1.07;;;12.70;99.90;;;;;;4910456;28;20212;-68
2023/10/31 09:42:47;;;;;;;2.60;1.10;;;12.50;99.90;;;;;;4910891;28;20234;-68
2023/10/31 09:45:13;;;;;;;3.33;1.20;;;12.60;99.90;;;;;;4910504;28;20184;-69
2023/10/31 09:47:40;;;;;;;4.53;1.00;;;12.60;99.90;;;;;;4910692;28;20695;-68
2023/10/31 09:50:08;;;;;;;3.03;1.10;;;12.50;99.90;;;;;;4910586;28;20215;-68
2023/10/31 09:52:35;;;;;;;2.50;1.07;;;12.30;99.90;;;;;;4910515;28;20604;-67
2023/10/31 09:55:01;;;;;;;3.10;1.17;;;12.20;99.90;;;;;;4910417;28;20180;-68
2023/10/31 09:57:27;;;;;;;2.73;1.00;;;12.00;99.90;;;;;;4910676;28;20187;-67
2023/10/31 09:59:53;;;;;;;1.90;0.83;;;11.80;99.90;;;;;;4910565;28;20568;-68
2023/10/31 10:02:18;;;;;;;6.03;0.90;;;11.80;99.90;;;;;;4908369;28;20250;-67
2023/10/31 10:04:44;;;;;;;2.17;0.90;;;11.70;99.90;;;;;;4909496;28;20176;-68
2023/10/31 10:07:15;;;;;;;2.63;0.90;;;11.70;99.90;;;;;;4910499;28;20184;-68
2023/10/31 10:09:41;;;;;;;3.37;1.00;;;11.80;99.90;;;;;;4902597;28;20216;-67
2023/10/31 10:12:07;;;;;;;1.77;0.90;;;11.80;99.90;;;;;;4910634;28;20194;-68
2023/10/31 10:14:32;;;;;;;3.20;1.00;;;11.80;99.90;;;;;;4902275;28;20271;-68
2023/10/31 10:16:58;;;;;;;2.40;0.80;;;11.80;99.90;;;;;;4910401;28;20191;-68
2023/10/31 10:19:24;;;;;;;2.73;1.07;;;11.70;99.90;;;;;;4911806;28;20398;-67
2023/10/31 10:21:57;;;;;;;3.67;1.30;;;11.70;99.90;;;;;;4913686;28;20552;-67
2023/10/31 10:24:24;;;;;;;2.00;0.93;;;11.70;99.90;;;;;;4913371;28;20180;-67
2023/10/31 10:26:50;;;;;;;1.83;0.73;;;11.80;99.90;;;;;;4913657;28;20183;-67
2023/10/31 10:29:17;;;;;;;1.53;0.80;;;11.80;99.90;;;;;;4913479;28;20204;-67
2023/10/31 10:31:43;;;;;;;1.57;0.70;;;11.90;99.90;;;;;;4913597;28;20238;-67
2023/10/31 10:34:09;;;;;;;3.10;0.80;;;11.80;99.90;;;;;;4913299;28;20622;-67
2023/10/31 10:36:35;;;;;;;1.67;0.67;;;11.80;99.90;;;;;;4913130;28;20200;-67
2023/10/31 10:39:01;;;;;;;1.43;0.80;;;11.80;99.90;;;;;;4913571;28;20228;-67
2023/10/31 10:41:28;;;;;;;2.23;0.87;;;11.80;99.90;;;;;;4913399;28;20208;-68
2023/10/31 10:44:05;;;;;;;3.37;0.93;;;11.90;99.90;;;;;;4913114;28;20194;-69
2023/10/31 10:46:34;;;;;;;2.03;0.93;;;12.00;99.90;;;;;;4913524;28;20187;-68
2023/10/31 10:49:04;;;;;;;4.77;1.17;;;12.10;99.90;;;;;;4913502;28;20216;-68
2023/10/31 10:51:42;;;;;;;2.33;0.90;;;12.30;99.90;;;;;;4911298;28;20188;-68
2023/10/31 10:54:32;;;;;;;1.53;0.83;;;12.70;99.90;;;;;;4908709;28;20542;-68
2023/10/31 10:57:56;;;;;;;3.77;1.00;;;12.80;99.90;;;;;;4913076;28;20634;-69
2023/10/31 11:00:24;;;;;;;3.03;0.80;;;12.90;99.90;;;;;;5009726;28;20303;-68
2023/10/31 11:02:52;;;;;;;1.47;0.80;;;12.90;99.90;;;;;;4938555;28;20208;-68
2023/10/31 11:05:18;;;;;;;0.63;0.50;;;13.10;99.90;;;;;;4941274;28;20680;-69
2023/10/31 11:07:45;;;;;;;1.77;0.70;;;13.20;99.90;;;;;;4970187;28;20181;-68
2023/10/31 11:10:11;;;;;;;3.40;0.97;;;13.30;99.90;;;;;;4934144;28;20243;-68
2023/10/31 11:12:38;;;;;;;1.07;0.90;;;13.30;99.90;;;;;;4912342;28;20682;-68
2023/10/31 11:15:06;;;;;;;2.13;0.67;;;13.30;99.90;;;;;;4913001;28;20187;-68
2023/10/31 11:17:35;;;;;;;1.60;0.67;;;13.30;99.90;;;;;;4912216;28;20246;-67
2023/10/31 11:20:02;;;;;;;2.63;0.90;;;13.20;99.90;;;;;;4912276;28;20215;-68
2023/10/31 11:22:44;;;;;;;0.80;0.70;;;13.20;99.90;;;;;;4912405;28;20587;-68
2023/10/31 11:25:12;;;;;;;2.93;0.53;;;13.30;99.90;;;;;;4912634;28;20276;-67
2023/10/31 11:27:37;;;;;;;1.20;0.63;;;13.50;99.90;;;;;;4912681;28;20454;-67
2023/10/31 11:30:27;;;;;;;4.20;0.90;;;13.70;99.90;;;;;;4912667;28;20210;-67
2023/10/31 11:32:53;;;;;;;1.40;0.70;;;13.90;99.90;;;;;;4912657;28;20184;-68
2023/10/31 11:35:21;;;;;;;0.90;0.70;;;14.10;99.90;;;;;;4912329;28;20234;-68
2023/10/31 11:38:00;;;;;;;4.17;0.70;;;14.20;99.90;;;;;;4904714;28;20274;-68
2023/10/31 11:40:25;;;;;;;2.33;0.83;;;14.60;99.90;;;;;;4912408;28;20302;-68
2023/10/31 11:42:56;;;;;;;2.23;0.60;;;15.40;99.90;;;;;;4912635;28;20266;-69
2023/10/31 11:45:29;;;;;;;5.57;1.03;;;16.00;99.90;;;;;;4912077;28;20188;-68
2023/10/31 11:47:55;;;;;;;2.23;0.73;;;16.00;99.90;;;;;;4912305;28;20184;-69
2023/10/31 11:50:21;;;;;;;2.60;0.70;;;16.20;99.90;;;;;;4912086;28;20657;-68
2023/10/31 11:52:59;;;;;;;1.83;0.60;;;16.50;99.90;;;;;;4912283;28;20180;-69
2023/10/31 11:55:25;;;;;;;2.87;0.67;;;16.80;99.90;;;;;;4911910;28;20707;-68
2023/10/31 11:57:50;;;;;;;2.93;0.80;;;16.90;99.90;;;;;;4912328;28;20180;-69
2023/10/31 12:00:23;;;;;;;1.90;0.80;;;16.60;99.90;;;;;;4912079;28;20289;-68
2023/10/31 12:03:02;;;;;;;2.97;0.80;;;16.20;99.90;;;;;;4912203;28;20184;-68
2023/10/31 12:05:28;;;;;;;3.50;0.90;;;16.00;99.90;;;;;;4911898;28;20692;-68
2023/10/31 12:07:54;;;;;;;4.17;0.60;;;15.60;99.90;;;;;;4912184;28;20208;-68
2023/10/31 12:10:24;;;;;;;3.63;0.70;;;15.50;99.90;;;;;;4910746;28;20282;-68
2023/10/31 12:12:50;;;;;;;2.67;0.73;;;15.20;99.90;;;;;;4911955;28;20180;-68
2023/10/31 12:15:16;;;;;;;1.40;0.60;;;15.10;99.90;;;;;;4911804;28;20188;-68
2023/10/31 12:17:42;;;;;;;1.33;0.67;;;15.10;99.90;;;;;;4911675;28;20607;-68
2023/10/31 12:20:08;;;;;;;4.33;0.80;;;15.00;99.90;;;;;;4910620;28;20238;-68
2023/10/31 12:22:35;;;;;;;2.57;0.70;;;15.10;99.90;;;;;;4911698;28;20195;-68
2023/10/31 12:25:06;;;;;;;3.20;0.53;;;15.10;99.90;;;;;;4911694;28;20183;-69
2023/10/31 12:27:44;;;;;;;3.07;0.40;;;15.30;99.90;;;;;;4911614;28;20184;-68
2023/10/31 12:30:15;;;;;;;6.10;0.60;;;15.40;99.90;;;;;;4904000;28;20200;-69
2023/10/31 12:32:42;;;;;;;2.10;0.57;;;15.50;99.90;;;;;;4911810;28;20808;-69
2023/10/31 12:35:15;;;;;;;1.20;0.43;;;15.80;99.90;;;;;;4911459;28;20180;-69
2023/10/31 12:37:45;;;;;;;2.40;0.50;;;16.20;99.90;;;;;;4911936;28;20192;-68
2023/10/31 12:40:13;;;;;;;1.80;0.47;;;16.50;99.90;;;;;;4911632;28;20525;-68
2023/10/31 12:42:39;;;;;;;1.53;0.50;;;16.70;99.90;;;;;;4911145;28;20581;-69
2023/10/31 12:45:05;;;;;;;1.63;0.37;;;16.60;99.90;;;;;;4911372;28;20184;-69
2023/10/31 12:47:31;;;;;;;8.10;0.87;;;16.50;99.90;;;;;;4911441;28;20180;-69